createdAt,value
2024-02-10T00:00:37.048Z,5.809
2024-02-10T00:01:37.095Z,5.813
2024-02-10T00:02:37.045Z,5.811
2024-02-10T00:03:37.058Z,5.811
2024-02-10T00:04:37.154Z,5.811
2024-02-10T00:05:37.194Z,5.819
2024-02-10T00:06:37.104Z,5.814
2024-02-10T00:07:37.088Z,5.821
2024-02-10T00:08:37.137Z,5.816
2024-02-10T00:09:37.114Z,5.804
2024-02-10T00:10:37.128Z,5.821
2024-02-10T00:11:37.116Z,5.809
2024-02-10T00:12:37.118Z,5.804
2024-02-10T00:13:40.129Z,5.809
2024-02-10T00:14:37.162Z,5.812
2024-02-10T00:15:37.139Z,5.840
2024-02-10T00:16:37.163Z,5.834
2024-02-10T00:17:37.167Z,5.838
2024-02-10T00:18:37.267Z,5.846
2024-02-10T00:19:37.228Z,5.831
2024-02-10T00:20:37.153Z,5.848
2024-02-10T00:21:37.170Z,5.850
2024-02-10T00:22:37.245Z,5.848
2024-02-10T00:23:37.197Z,5.848
2024-02-10T00:24:37.202Z,5.864
2024-02-10T00:25:37.243Z,5.858
2024-02-10T00:26:37.210Z,5.835
2024-02-10T00:27:37.217Z,5.836
2024-02-10T00:28:37.462Z,5.834
2024-02-10T00:29:38.348Z,5.848
2024-02-10T00:30:37.231Z,5.848
2024-02-10T00:31:37.262Z,5.850
2024-02-10T00:32:37.285Z,5.847
2024-02-10T00:33:37.261Z,5.850
2024-02-10T00:34:37.276Z,5.847
2024-02-10T00:35:37.262Z,5.842
2024-02-10T00:36:37.266Z,5.844
2024-02-10T00:37:37.352Z,5.840
2024-02-10T00:38:37.365Z,5.837
2024-02-10T00:39:37.291Z,5.834
2024-02-10T00:40:37.370Z,5.826
2024-02-10T00:41:37.356Z,5.838
2024-02-10T00:42:37.341Z,5.802
2024-02-10T00:43:37.345Z,5.797
2024-02-10T00:44:37.350Z,5.797
2024-02-10T00:45:37.349Z,5.797
2024-02-10T00:46:37.409Z,5.800
2024-02-10T00:47:37.386Z,5.816
2024-02-10T00:48:37.423Z,5.816
2024-02-10T00:49:37.433Z,5.819
2024-02-10T00:50:37.377Z,5.824
2024-02-10T00:51:37.416Z,5.816
2024-02-10T00:52:37.411Z,5.824
2024-02-10T00:53:37.413Z,5.819
2024-02-10T00:54:37.423Z,5.824
2024-02-10T00:55:37.668Z,5.819
2024-02-10T00:56:37.454Z,5.845
2024-02-10T00:57:37.440Z,5.845
2024-02-10T00:58:37.514Z,5.840
2024-02-10T00:59:37.454Z,5.840
2024-02-10T01:00:37.526Z,5.849
2024-02-10T01:01:37.489Z,5.847
2024-02-10T01:02:37.480Z,5.847
2024-02-10T01:03:37.517Z,5.856
2024-02-10T01:04:37.543Z,5.847
2024-02-10T01:05:37.546Z,5.851
2024-02-10T01:06:37.512Z,5.847
2024-02-10T01:07:37.531Z,5.849
2024-02-10T01:08:37.579Z,5.854
2024-02-10T01:09:37.539Z,5.849
2024-02-10T01:10:37.608Z,5.849
2024-02-10T01:11:37.551Z,5.847
2024-02-10T01:12:37.556Z,5.840
2024-02-10T01:13:37.635Z,5.860
2024-02-10T01:14:37.567Z,5.843
2024-02-10T01:15:37.587Z,5.846
2024-02-10T01:16:37.598Z,5.857
2024-02-10T01:17:37.601Z,5.861
2024-02-10T01:18:37.793Z,5.851
2024-02-10T01:19:37.606Z,5.849
2024-02-10T01:20:37.650Z,5.849
2024-02-10T01:21:37.640Z,5.851
2024-02-10T01:22:37.656Z,5.863
2024-02-10T01:23:37.650Z,5.856
2024-02-10T01:24:37.667Z,5.849
2024-02-10T01:25:37.688Z,5.861
2024-02-10T01:26:37.653Z,5.860
2024-02-10T01:27:37.671Z,5.861
2024-02-10T01:28:37.840Z,5.863
2024-02-10T01:29:37.687Z,5.863
2024-02-10T01:30:37.695Z,5.863
2024-02-10T01:31:37.733Z,5.863
2024-02-10T01:32:37.761Z,5.858
2024-02-10T01:33:37.859Z,5.849
2024-02-10T01:34:37.784Z,5.861
2024-02-10T01:35:37.733Z,5.849
2024-02-10T01:36:37.740Z,5.865
2024-02-10T01:37:37.766Z,5.843
2024-02-10T01:38:37.789Z,5.843
2024-02-10T01:39:37.760Z,5.849
2024-02-10T01:40:37.820Z,5.849
2024-02-10T01:41:37.760Z,5.842
2024-02-10T01:42:37.794Z,5.842
2024-02-10T01:43:37.826Z,5.849
2024-02-10T01:44:37.777Z,5.862
2024-02-10T01:45:37.788Z,5.867
2024-02-10T01:46:37.807Z,5.847
2024-02-10T01:47:38.097Z,5.847
2024-02-10T01:48:38.044Z,5.865
2024-02-10T01:49:37.885Z,5.868
2024-02-10T01:50:38.016Z,5.856
2024-02-10T01:51:37.845Z,5.863
2024-02-10T01:52:37.978Z,5.871
2024-02-10T01:53:37.866Z,5.859
2024-02-10T01:54:37.887Z,5.872
2024-02-10T01:55:37.916Z,5.871
2024-02-10T01:56:37.888Z,5.873
2024-02-10T01:57:37.896Z,5.873
2024-02-10T01:58:38.001Z,5.876
2024-02-10T01:59:37.901Z,5.866
2024-02-10T02:00:37.928Z,5.857
2024-02-10T02:01:37.923Z,5.870
2024-02-10T02:02:37.952Z,5.891
2024-02-10T02:03:37.979Z,5.876
2024-02-10T02:04:38.057Z,5.861
2024-02-10T02:05:37.984Z,5.866
2024-02-10T02:06:37.963Z,5.864
2024-02-10T02:07:37.993Z,5.876
2024-02-10T02:08:37.985Z,5.864
2024-02-10T02:09:37.975Z,5.861
2024-02-10T02:10:37.994Z,5.878
2024-02-10T02:11:37.999Z,5.864
2024-02-10T02:12:37.995Z,5.864
2024-02-10T02:13:38.063Z,5.864
2024-02-10T02:14:38.031Z,5.870
2024-02-10T02:15:38.012Z,5.876
2024-02-10T02:16:38.068Z,5.873
2024-02-10T02:17:38.045Z,5.861
2024-02-10T02:18:38.125Z,5.861
2024-02-10T02:19:38.099Z,5.871
2024-02-10T02:20:38.049Z,5.878
2024-02-10T02:21:38.079Z,5.873
2024-02-10T02:22:38.075Z,5.881
2024-02-10T02:23:38.067Z,5.876
2024-02-10T02:24:38.077Z,5.879
2024-02-10T02:25:38.109Z,5.882
2024-02-10T02:26:38.098Z,5.870
2024-02-10T02:27:38.102Z,5.870
2024-02-10T02:28:38.209Z,5.870
2024-02-10T02:29:38.161Z,5.866
2024-02-10T02:30:40.029Z,5.866
2024-02-10T02:31:38.199Z,5.866
2024-02-10T02:32:38.177Z,5.864
2024-02-10T02:33:38.161Z,5.864
2024-02-10T02:34:38.456Z,5.904
2024-02-10T02:35:38.204Z,5.917
2024-02-10T02:36:38.180Z,5.903
2024-02-10T02:37:38.217Z,5.885
2024-02-10T02:38:38.236Z,5.898
2024-02-10T02:39:38.190Z,5.910
2024-02-10T02:40:38.253Z,5.919
2024-02-10T02:41:38.206Z,5.928
2024-02-10T02:42:38.213Z,5.919
2024-02-10T02:43:38.268Z,5.917
2024-02-10T02:44:38.236Z,5.913
2024-02-10T02:45:38.270Z,5.913
2024-02-10T02:46:38.302Z,5.913
2024-02-10T02:47:38.384Z,5.916
2024-02-10T02:48:38.448Z,5.911
2024-02-10T02:49:38.326Z,5.911
2024-02-10T02:50:38.270Z,5.913
2024-02-10T02:51:38.275Z,5.917
2024-02-10T02:52:38.284Z,5.917
2024-02-10T02:53:38.293Z,5.917
2024-02-10T02:54:38.298Z,5.933
2024-02-10T02:55:38.337Z,5.934
2024-02-10T02:56:38.327Z,5.911
2024-02-10T02:57:38.328Z,5.906
2024-02-10T02:58:38.378Z,5.933
2024-02-10T02:59:38.364Z,5.933
2024-02-10T03:00:38.402Z,5.937
2024-02-10T03:01:38.386Z,5.929
2024-02-10T03:02:38.362Z,5.929
2024-02-10T03:03:38.431Z,5.929
2024-02-10T03:04:38.386Z,5.929
2024-02-10T03:05:38.412Z,5.927
2024-02-10T03:06:38.411Z,5.927
2024-02-10T03:07:38.437Z,5.922
2024-02-10T03:08:38.443Z,5.927
2024-02-10T03:09:38.403Z,5.919
2024-02-10T03:10:38.438Z,5.921
2024-02-10T03:11:38.429Z,5.918
2024-02-10T03:12:38.440Z,5.933
2024-02-10T03:13:38.462Z,5.936
2024-02-10T03:14:38.454Z,5.939
2024-02-10T03:15:38.451Z,5.952
2024-02-10T03:16:38.474Z,5.954
2024-02-10T03:17:38.475Z,5.954
2024-02-10T03:18:38.553Z,5.957
2024-02-10T03:19:38.498Z,5.955
2024-02-10T03:20:38.473Z,5.965
2024-02-10T03:21:38.482Z,5.965
2024-02-10T03:22:38.696Z,5.963
2024-02-10T03:23:38.498Z,5.963
2024-02-10T03:24:38.510Z,5.968
2024-02-10T03:25:38.588Z,5.968
2024-02-10T03:26:38.539Z,5.958
2024-02-10T03:27:38.559Z,5.963
2024-02-10T03:28:38.625Z,5.955
2024-02-10T03:29:38.563Z,5.955
2024-02-10T03:30:38.562Z,5.963
2024-02-10T03:31:38.630Z,5.965
2024-02-10T03:32:38.623Z,5.969
2024-02-10T03:33:38.635Z,5.967
2024-02-10T03:34:38.698Z,5.976
2024-02-10T03:35:38.669Z,5.973
2024-02-10T03:36:38.600Z,5.965
2024-02-10T03:37:38.641Z,5.968
2024-02-10T03:38:38.610Z,5.958
2024-02-10T03:39:38.624Z,5.961
2024-02-10T03:40:38.640Z,5.969
2024-02-10T03:41:38.674Z,5.964
2024-02-10T03:42:38.660Z,5.972
2024-02-10T03:43:38.657Z,5.969
2024-02-10T03:44:38.654Z,5.988
2024-02-10T03:45:38.664Z,5.985
2024-02-10T03:46:38.682Z,5.992
2024-02-10T03:47:38.702Z,5.970
2024-02-10T03:48:38.813Z,5.963
2024-02-10T03:49:38.706Z,5.974
2024-02-10T03:50:38.729Z,5.975
2024-02-10T03:51:38.709Z,5.971
2024-02-10T03:52:38.795Z,5.974
2024-02-10T03:53:38.723Z,5.979
2024-02-10T03:54:38.738Z,5.980
2024-02-10T03:55:38.831Z,5.980
2024-02-10T03:56:38.804Z,5.971
2024-02-10T03:57:39.041Z,5.979
2024-02-10T03:58:38.927Z,5.974
2024-02-10T03:59:38.774Z,5.976
2024-02-10T04:00:38.790Z,5.986
2024-02-10T04:01:38.794Z,5.984
2024-02-10T04:02:38.774Z,5.976
2024-02-10T04:03:38.823Z,5.975
2024-02-10T04:04:38.901Z,6.004
2024-02-10T04:05:38.788Z,6.014
2024-02-10T04:06:38.808Z,6.014
2024-02-10T04:07:38.818Z,6.000
2024-02-10T04:08:38.800Z,6.019
2024-02-10T04:09:38.846Z,6.003
2024-02-10T04:10:38.825Z,5.991
2024-02-10T04:11:38.827Z,6.025
2024-02-10T04:12:38.825Z,6.021
2024-02-10T04:13:38.895Z,6.038
2024-02-10T04:14:38.867Z,6.022
2024-02-10T04:15:38.848Z,6.040
2024-02-10T04:16:38.884Z,6.030
2024-02-10T04:17:38.899Z,6.030
2024-02-10T04:18:39.075Z,6.040
2024-02-10T04:19:38.912Z,6.029
2024-02-10T04:20:38.905Z,6.049
2024-02-10T04:21:38.906Z,6.052
2024-02-10T04:22:38.955Z,6.052
2024-02-10T04:23:38.950Z,6.052
2024-02-10T04:24:38.929Z,6.057
2024-02-10T04:25:38.994Z,6.047
2024-02-10T04:26:38.944Z,6.052
2024-02-10T04:27:38.930Z,6.049
2024-02-10T04:28:39.047Z,6.066
2024-02-10T04:29:38.961Z,6.053
2024-02-10T04:30:38.969Z,6.050
2024-02-10T04:31:38.999Z,6.060
2024-02-10T04:32:39.050Z,6.076
2024-02-10T04:33:39.146Z,6.066
2024-02-10T04:34:39.081Z,6.069
2024-02-10T04:35:39.026Z,6.060
2024-02-10T04:36:39.037Z,6.063
2024-02-10T04:37:39.108Z,6.075
2024-02-10T04:38:39.054Z,6.080
2024-02-10T04:39:39.051Z,6.079
2024-02-10T04:40:39.101Z,6.068
2024-02-10T04:41:39.069Z,6.077
2024-02-10T04:42:39.074Z,6.074
2024-02-10T04:43:39.131Z,6.074
2024-02-10T04:44:39.095Z,6.069
2024-02-10T04:45:39.101Z,6.084
2024-02-10T04:46:39.178Z,6.065
2024-02-10T04:47:39.138Z,6.078
2024-02-10T04:48:39.214Z,6.080
2024-02-10T04:49:39.229Z,6.078
2024-02-10T04:50:39.163Z,6.110
2024-02-10T04:51:41.369Z,6.098
2024-02-10T04:52:39.180Z,6.114
2024-02-10T04:53:39.143Z,6.126
2024-02-10T04:54:39.156Z,6.117
2024-02-10T04:55:39.166Z,6.107
2024-02-10T04:56:39.185Z,6.112
2024-02-10T04:57:39.167Z,6.117
2024-02-10T04:58:39.276Z,6.125
2024-02-10T04:59:39.184Z,6.124
2024-02-10T05:00:39.213Z,6.132
2024-02-10T05:01:39.280Z,6.124
2024-02-10T05:02:39.209Z,6.124
2024-02-10T05:03:39.229Z,6.139
2024-02-10T05:04:39.244Z,6.139
2024-02-10T05:05:39.283Z,6.149
2024-02-10T05:06:39.232Z,6.152
2024-02-10T05:07:39.282Z,6.150
2024-02-10T05:08:39.223Z,6.148
2024-02-10T05:09:39.224Z,6.145
2024-02-10T05:10:39.300Z,6.138
2024-02-10T05:11:39.264Z,6.148
2024-02-10T05:12:39.269Z,6.148
2024-02-10T05:13:39.357Z,6.165
2024-02-10T05:14:39.282Z,6.156
2024-02-10T05:15:39.334Z,6.163
2024-02-10T05:16:39.357Z,6.140
2024-02-10T05:17:39.391Z,6.143
2024-02-10T05:18:39.492Z,6.143
2024-02-10T05:19:39.638Z,6.141
2024-02-10T05:20:39.406Z,6.162
2024-02-10T05:21:39.347Z,6.131
2024-02-10T05:22:39.354Z,6.162
2024-02-10T05:23:39.331Z,6.162
2024-02-10T05:24:39.378Z,6.174
2024-02-10T05:25:39.401Z,6.176
2024-02-10T05:26:39.388Z,6.170
2024-02-10T05:27:39.385Z,6.153
2024-02-10T05:28:39.427Z,6.202
2024-02-10T05:29:39.417Z,6.192
2024-02-10T05:30:39.411Z,6.190
2024-02-10T05:31:39.570Z,6.200
2024-02-10T05:32:39.447Z,6.195
2024-02-10T05:33:39.458Z,6.208
2024-02-10T05:34:39.513Z,6.196
2024-02-10T05:35:39.444Z,6.222
2024-02-10T05:36:39.447Z,6.191
2024-02-10T05:37:39.522Z,6.227
2024-02-10T05:38:39.465Z,6.215
2024-02-10T05:39:39.501Z,6.227
2024-02-10T05:40:39.505Z,6.228
2024-02-10T05:41:39.623Z,6.210
2024-02-10T05:42:39.512Z,6.242
2024-02-10T05:43:39.583Z,6.239
2024-02-10T05:44:39.558Z,6.219
2024-02-10T05:45:39.541Z,6.214
2024-02-10T05:46:39.578Z,6.224
2024-02-10T05:47:39.635Z,6.214
2024-02-10T05:48:39.847Z,6.229
2024-02-10T05:49:39.601Z,6.224
2024-02-10T05:50:39.564Z,6.224
2024-02-10T05:51:39.589Z,6.232
2024-02-10T05:52:39.683Z,6.217
2024-02-10T05:53:39.650Z,6.227
2024-02-10T05:54:39.619Z,6.244
2024-02-10T05:55:39.696Z,6.257
2024-02-10T05:56:39.641Z,6.244
2024-02-10T05:57:39.662Z,6.249
2024-02-10T05:58:39.685Z,6.241
2024-02-10T05:59:39.664Z,6.261
2024-02-10T06:00:39.945Z,6.264
2024-02-10T06:01:39.724Z,6.270
2024-02-10T06:02:39.710Z,6.252
2024-02-10T06:03:39.770Z,6.259
2024-02-10T06:04:39.738Z,6.249
2024-02-10T06:05:39.864Z,6.240
2024-02-10T06:06:39.735Z,6.256
2024-02-10T06:07:39.857Z,6.241
2024-02-10T06:08:39.746Z,6.249
2024-02-10T06:09:39.742Z,6.251
2024-02-10T06:10:39.804Z,6.250
2024-02-10T06:11:39.758Z,6.254
2024-02-10T06:12:39.785Z,6.245
2024-02-10T06:13:39.806Z,6.230
2024-02-10T06:14:39.777Z,6.244
2024-02-10T06:15:39.780Z,6.257
2024-02-10T06:16:39.871Z,6.252
2024-02-10T06:17:39.843Z,6.250
2024-02-10T06:18:39.790Z,6.270
2024-02-10T06:19:39.861Z,6.241
2024-02-10T06:20:39.869Z,6.259
2024-02-10T06:21:39.845Z,6.240
2024-02-10T06:22:39.858Z,6.249
2024-02-10T06:23:39.847Z,6.259
2024-02-10T06:24:39.840Z,6.259
2024-02-10T06:25:42.713Z,6.254
2024-02-10T06:26:39.877Z,6.259
2024-02-10T06:27:39.882Z,6.240
2024-02-10T06:28:39.870Z,6.246
2024-02-10T06:29:39.877Z,6.241
2024-02-10T06:30:39.883Z,6.246
2024-02-10T06:31:39.949Z,6.256
2024-02-10T06:32:39.936Z,6.256
2024-02-10T06:33:39.928Z,6.234
2024-02-10T06:34:39.950Z,6.256
2024-02-10T06:35:39.936Z,6.234
2024-02-10T06:36:39.933Z,6.234
2024-02-10T06:37:39.957Z,6.234
2024-02-10T06:38:39.944Z,6.260
2024-02-10T06:39:39.953Z,6.255
2024-02-10T06:40:40.039Z,6.244
2024-02-10T06:41:39.967Z,6.244
2024-02-10T06:42:39.968Z,6.224
2024-02-10T06:43:40.153Z,6.239
2024-02-10T06:44:39.981Z,6.236
2024-02-10T06:45:39.993Z,6.245
2024-02-10T06:46:40.022Z,6.245
2024-02-10T06:47:40.074Z,6.249
2024-02-10T06:48:40.217Z,6.254
2024-02-10T06:49:40.083Z,6.259
2024-02-10T06:50:41.802Z,6.240
2024-02-10T06:51:40.050Z,6.276
2024-02-10T06:52:40.072Z,6.276
2024-02-10T06:53:40.061Z,6.240
2024-02-10T06:54:40.078Z,6.254
2024-02-10T06:55:40.118Z,6.241
2024-02-10T06:56:40.077Z,6.236
2024-02-10T06:57:40.087Z,6.240
2024-02-10T06:58:40.131Z,6.247
2024-02-10T06:59:40.102Z,6.247
2024-02-10T07:00:40.144Z,6.255
2024-02-10T07:01:40.210Z,6.249
2024-02-10T07:02:40.156Z,6.251
2024-02-10T07:03:40.170Z,6.266
2024-02-10T07:04:40.288Z,6.256
2024-02-10T07:05:40.458Z,6.273
2024-02-10T07:06:40.288Z,6.271
2024-02-10T07:07:40.376Z,6.273
2024-02-10T07:08:40.237Z,6.282
2024-02-10T07:09:40.251Z,6.289
2024-02-10T07:10:40.274Z,6.289
2024-02-10T07:11:40.249Z,6.282
2024-02-10T07:12:40.248Z,6.316
2024-02-10T07:13:40.346Z,6.301
2024-02-10T07:14:40.265Z,6.314
2024-02-10T07:15:40.303Z,6.297
2024-02-10T07:16:40.314Z,6.305
2024-02-10T07:17:40.354Z,6.308
2024-02-10T07:18:40.352Z,6.317
2024-02-10T07:19:40.312Z,6.298
2024-02-10T07:20:40.309Z,6.329
2024-02-10T07:21:40.324Z,6.333
2024-02-10T07:22:40.384Z,6.331
2024-02-10T07:23:40.363Z,6.341
2024-02-10T07:24:40.341Z,6.336
2024-02-10T07:25:40.897Z,6.358
2024-02-10T07:26:40.345Z,6.345
2024-02-10T07:27:40.438Z,6.378
2024-02-10T07:28:40.488Z,6.374
2024-02-10T07:29:40.344Z,6.391
2024-02-10T07:30:40.357Z,6.384
2024-02-10T07:31:40.465Z,6.384
2024-02-10T07:32:40.472Z,6.391
2024-02-10T07:33:40.469Z,6.388
2024-02-10T07:34:40.487Z,6.385
2024-02-10T07:35:40.530Z,6.368
2024-02-10T07:36:40.437Z,6.392
2024-02-10T07:37:40.489Z,6.387
2024-02-10T07:38:40.530Z,6.408
2024-02-10T07:39:40.486Z,6.408
2024-02-10T07:40:40.823Z,6.408
2024-02-10T07:41:40.593Z,6.441
2024-02-10T07:42:40.481Z,6.441
2024-02-10T07:43:40.472Z,6.441
2024-02-10T07:44:40.547Z,6.431
2024-02-10T07:45:40.469Z,6.455
2024-02-10T07:46:40.627Z,6.444
2024-02-10T07:47:40.582Z,6.465
2024-02-10T07:48:40.578Z,6.448
2024-02-10T07:49:40.593Z,6.468
2024-02-10T07:50:40.563Z,6.458
2024-02-10T07:51:40.607Z,6.448
2024-02-10T07:52:40.622Z,6.463
2024-02-10T07:53:40.589Z,6.443
2024-02-10T07:54:40.597Z,6.485
2024-02-10T07:55:40.619Z,6.475
2024-02-10T07:56:40.556Z,6.485
2024-02-10T07:57:40.565Z,6.473
2024-02-10T07:58:40.600Z,6.485
2024-02-10T07:59:40.618Z,6.472
2024-02-10T08:00:40.689Z,6.506
2024-02-10T08:01:40.746Z,6.498
2024-02-10T08:02:40.669Z,6.528
2024-02-10T08:03:40.677Z,6.521
2024-02-10T08:04:40.717Z,6.538
2024-02-10T08:05:40.756Z,6.543
2024-02-10T08:06:40.694Z,6.538
2024-02-10T08:07:40.746Z,6.549
2024-02-10T08:08:40.676Z,6.549
2024-02-10T08:09:40.709Z,6.547
2024-02-10T08:10:40.790Z,6.529
2024-02-10T08:11:40.664Z,6.550
2024-02-10T08:12:40.694Z,6.558
2024-02-10T08:13:40.830Z,6.564
2024-02-10T08:14:40.739Z,6.585
2024-02-10T08:15:40.798Z,6.588
2024-02-10T08:16:40.748Z,6.588
2024-02-10T08:17:40.811Z,6.572
2024-02-10T08:18:40.769Z,6.600
2024-02-10T08:19:40.778Z,6.598
2024-02-10T08:20:40.760Z,6.587
2024-02-10T08:21:40.769Z,6.603
2024-02-10T08:22:40.886Z,6.577
2024-02-10T08:23:40.762Z,6.600
2024-02-10T08:24:40.790Z,6.639
2024-02-10T08:25:40.792Z,6.618
2024-02-10T08:26:42.062Z,6.648
2024-02-10T08:27:41.016Z,6.653
2024-02-10T08:28:40.867Z,6.645
2024-02-10T08:29:40.825Z,6.645
2024-02-10T08:30:40.868Z,6.636
2024-02-10T08:31:40.880Z,6.644
2024-02-10T08:32:40.864Z,6.622
2024-02-10T08:33:40.938Z,6.630
2024-02-10T08:34:40.912Z,6.630
2024-02-10T08:35:40.859Z,6.633
2024-02-10T08:36:40.867Z,6.644
2024-02-10T08:37:40.930Z,6.663
2024-02-10T08:38:40.897Z,6.647
2024-02-10T08:39:40.884Z,6.626
2024-02-10T08:40:40.918Z,6.652
2024-02-10T08:41:40.892Z,6.642
2024-02-10T08:42:40.926Z,6.640
2024-02-10T08:43:40.947Z,6.663
2024-02-10T08:44:40.920Z,6.667
2024-02-10T08:45:40.935Z,6.661
2024-02-10T08:46:40.957Z,6.682
2024-02-10T08:47:41.035Z,6.710
2024-02-10T08:48:41.141Z,6.718
2024-02-10T08:49:41.022Z,6.716
2024-02-10T08:50:40.952Z,6.713
2024-02-10T08:51:40.958Z,6.724
2024-02-10T08:52:41.101Z,6.714
2024-02-10T08:53:40.960Z,6.728
2024-02-10T08:54:40.978Z,6.706
2024-02-10T08:55:40.998Z,6.724
2024-02-10T08:56:41.033Z,6.735
2024-02-10T08:57:41.036Z,6.732
2024-02-10T08:58:41.085Z,6.757
2024-02-10T08:59:41.041Z,6.743
2024-02-10T09:00:41.106Z,6.736
2024-02-10T09:01:41.076Z,6.757
2024-02-10T09:02:41.059Z,6.779
2024-02-10T09:03:41.131Z,6.788
2024-02-10T09:04:41.603Z,6.777
2024-02-10T09:05:41.076Z,6.812
2024-02-10T09:06:41.102Z,6.795
2024-02-10T09:07:41.120Z,6.835
2024-02-10T09:08:41.092Z,6.834
2024-02-10T09:09:41.114Z,6.845
2024-02-10T09:10:41.175Z,6.838
2024-02-10T09:11:41.145Z,6.850
2024-02-10T09:12:41.145Z,6.867
2024-02-10T09:13:41.191Z,6.859
2024-02-10T09:14:41.158Z,6.898
2024-02-10T09:15:41.194Z,6.896
2024-02-10T09:16:41.227Z,6.935
2024-02-10T09:17:41.202Z,6.920
2024-02-10T09:18:41.344Z,6.923
2024-02-10T09:19:41.352Z,6.923
2024-02-10T09:20:41.213Z,6.927
2024-02-10T09:21:41.207Z,6.947
2024-02-10T09:22:41.243Z,6.954
2024-02-10T09:23:41.217Z,6.991
2024-02-10T09:24:41.543Z,6.986
2024-02-10T09:25:41.268Z,6.986
2024-02-10T09:26:41.232Z,6.986
2024-02-10T09:27:41.230Z,7.016
2024-02-10T09:28:41.292Z,7.005
2024-02-10T09:29:41.259Z,7.008
2024-02-10T09:30:41.255Z,7.010
2024-02-10T09:31:41.281Z,7.014
2024-02-10T09:32:41.283Z,7.038
2024-02-10T09:33:41.276Z,7.042
2024-02-10T09:34:41.330Z,7.060
2024-02-10T09:35:42.070Z,7.063
2024-02-10T09:36:41.297Z,7.061
2024-02-10T09:37:41.320Z,7.078
2024-02-10T09:38:41.312Z,7.061
2024-02-10T09:39:41.330Z,7.075
2024-02-10T09:40:41.380Z,7.102
2024-02-10T09:41:41.338Z,7.107
2024-02-10T09:42:41.336Z,7.130
2024-02-10T09:43:41.399Z,7.133
2024-02-10T09:44:41.389Z,7.133
2024-02-10T09:45:41.362Z,7.139
2024-02-10T09:46:41.389Z,7.166
2024-02-10T09:47:41.382Z,7.187
2024-02-10T09:48:41.433Z,7.177
2024-02-10T09:49:41.425Z,7.232
2024-02-10T09:50:41.419Z,7.200
2024-02-10T09:51:41.398Z,7.217
2024-02-10T09:52:41.470Z,7.230
2024-02-10T09:53:41.483Z,7.226
2024-02-10T09:54:41.422Z,7.241
2024-02-10T09:55:41.510Z,7.271
2024-02-10T09:56:41.463Z,7.283
2024-02-10T09:57:41.451Z,7.238
2024-02-10T09:58:41.522Z,7.287
2024-02-10T09:59:41.461Z,7.302
2024-02-10T10:00:41.548Z,7.306
2024-02-10T10:01:41.481Z,7.321
2024-02-10T10:02:41.492Z,7.371
2024-02-10T10:03:41.579Z,7.371
2024-02-10T10:04:41.563Z,7.354
2024-02-10T10:05:41.544Z,7.345
2024-02-10T10:06:41.505Z,7.374
2024-02-10T10:07:41.568Z,7.375
2024-02-10T10:08:41.521Z,7.394
2024-02-10T10:09:41.533Z,7.414
2024-02-10T10:10:41.572Z,7.411
2024-02-10T10:11:41.573Z,7.435
2024-02-10T10:12:41.567Z,7.468
2024-02-10T10:13:41.609Z,7.463
2024-02-10T10:14:41.548Z,7.475
2024-02-10T10:15:41.589Z,7.496
2024-02-10T10:16:41.598Z,7.486
2024-02-10T10:17:41.632Z,7.531
2024-02-10T10:18:41.615Z,7.555
2024-02-10T10:19:41.618Z,7.606
2024-02-10T10:20:41.629Z,7.583
2024-02-10T10:21:41.622Z,7.612
2024-02-10T10:22:41.655Z,7.602
2024-02-10T10:23:41.635Z,7.610
2024-02-10T10:24:41.643Z,7.616
2024-02-10T10:25:41.714Z,7.612
2024-02-10T10:26:41.672Z,7.654
2024-02-10T10:27:41.681Z,7.660
2024-02-10T10:28:41.748Z,7.680
2024-02-10T10:29:41.664Z,7.685
2024-02-10T10:30:41.676Z,7.681
2024-02-10T10:31:41.675Z,7.688
2024-02-10T10:32:41.797Z,7.713
2024-02-10T10:33:41.827Z,7.724
2024-02-10T10:34:41.749Z,7.765
2024-02-10T10:35:41.719Z,7.765
2024-02-10T10:36:41.725Z,7.761
2024-02-10T10:37:41.798Z,7.774
2024-02-10T10:38:41.721Z,7.806
2024-02-10T10:39:41.775Z,7.823
2024-02-10T10:40:41.800Z,7.800
2024-02-10T10:41:41.744Z,7.812
2024-02-10T10:42:41.742Z,7.817
2024-02-10T10:43:41.766Z,7.823
2024-02-10T10:44:41.761Z,7.851
2024-02-10T10:45:41.766Z,7.891
2024-02-10T10:46:41.798Z,7.901
2024-02-10T10:47:41.867Z,7.887
2024-02-10T10:48:42.006Z,7.893
2024-02-10T10:49:41.904Z,7.887
2024-02-10T10:50:41.809Z,7.889
2024-02-10T10:51:41.818Z,7.926
2024-02-10T10:52:41.854Z,7.913
2024-02-10T10:53:41.855Z,7.913
2024-02-10T10:54:41.930Z,7.898
2024-02-10T10:55:41.884Z,7.930
2024-02-10T10:56:41.840Z,7.955
2024-02-10T10:57:41.859Z,7.968
2024-02-10T10:58:41.939Z,7.961
2024-02-10T10:59:41.876Z,7.994
2024-02-10T11:00:41.907Z,7.986
2024-02-10T11:01:41.954Z,7.992
2024-02-10T11:02:45.312Z,7.988
2024-02-10T11:03:41.977Z,7.980
2024-02-10T11:04:41.919Z,7.987
2024-02-10T11:05:41.942Z,7.977
2024-02-10T11:06:41.961Z,8.019
2024-02-10T11:07:41.960Z,8.043
2024-02-10T11:08:41.962Z,8.072
2024-02-10T11:09:41.928Z,8.082
2024-02-10T11:10:41.986Z,8.110
2024-02-10T11:11:41.949Z,8.177
2024-02-10T11:12:41.959Z,8.191
2024-02-10T11:13:42.014Z,8.215
2024-02-10T11:14:42.005Z,8.211
2024-02-10T11:15:42.244Z,8.263
2024-02-10T11:16:42.050Z,8.274
2024-02-10T11:17:42.067Z,8.266
2024-02-10T11:18:42.088Z,8.290
2024-02-10T11:19:42.076Z,8.260
2024-02-10T11:20:42.038Z,8.326
2024-02-10T11:21:42.040Z,8.325
2024-02-10T11:22:42.162Z,8.328
2024-02-10T11:23:42.048Z,8.365
2024-02-10T11:24:42.046Z,8.423
2024-02-10T11:25:42.108Z,8.440
2024-02-10T11:26:42.087Z,8.502
2024-02-10T11:27:42.094Z,8.501
2024-02-10T11:28:42.134Z,8.513
2024-02-10T11:29:42.104Z,8.490
2024-02-10T11:30:44.080Z,8.496
2024-02-10T11:31:42.231Z,8.513
2024-02-10T11:32:42.200Z,8.509
2024-02-10T11:33:42.302Z,8.491
2024-02-10T11:34:42.244Z,8.501
2024-02-10T11:35:42.140Z,8.476
2024-02-10T11:36:42.172Z,8.457
2024-02-10T11:37:42.351Z,8.463
2024-02-10T11:38:42.213Z,8.476
2024-02-10T11:39:42.159Z,8.498
2024-02-10T11:40:42.199Z,8.503
2024-02-10T11:41:42.203Z,8.506
2024-02-10T11:42:42.189Z,8.487
2024-02-10T11:43:42.250Z,8.469
2024-02-10T11:44:42.204Z,8.472
2024-02-10T11:45:42.227Z,8.480
2024-02-10T11:46:42.261Z,8.446
2024-02-10T11:47:42.222Z,8.450
2024-02-10T11:48:42.334Z,8.454
2024-02-10T11:49:42.263Z,8.458
2024-02-10T11:50:52.562Z,8.444
2024-02-10T11:51:42.259Z,8.483
2024-02-10T11:52:42.272Z,8.487
2024-02-10T11:53:42.264Z,8.494
2024-02-10T11:54:42.279Z,8.494
2024-02-10T11:55:42.343Z,8.513
2024-02-10T11:56:42.297Z,8.500
2024-02-10T11:57:42.309Z,8.573
2024-02-10T11:58:42.321Z,8.568
2024-02-10T11:59:42.328Z,8.566
2024-02-10T12:00:42.377Z,8.582
2024-02-10T12:01:42.420Z,8.561
2024-02-10T12:02:42.348Z,8.587
2024-02-10T12:03:42.378Z,8.568
2024-02-10T12:04:42.529Z,8.561
2024-02-10T12:05:42.504Z,8.589
2024-02-10T12:06:42.368Z,8.600
2024-02-10T12:07:42.396Z,8.582
2024-02-10T12:08:42.379Z,8.596
2024-02-10T12:09:42.401Z,8.620
2024-02-10T12:10:42.434Z,8.582
2024-02-10T12:11:44.187Z,8.575
2024-02-10T12:12:42.414Z,8.582
2024-02-10T12:13:42.514Z,8.596
2024-02-10T12:14:42.447Z,8.589
2024-02-10T12:15:42.440Z,8.567
2024-02-10T12:16:42.507Z,8.546
2024-02-10T12:17:42.493Z,8.553
2024-02-10T12:18:42.518Z,8.563
2024-02-10T12:19:42.522Z,8.575
2024-02-10T12:20:42.481Z,8.561
2024-02-10T12:21:42.683Z,8.573
2024-02-10T12:22:42.528Z,8.569
2024-02-10T12:23:43.743Z,8.588
2024-02-10T12:24:42.509Z,8.593
2024-02-10T12:25:42.553Z,8.646
2024-02-10T12:26:42.539Z,8.629
2024-02-10T12:27:42.549Z,8.636
2024-02-10T12:28:42.596Z,8.639
2024-02-10T12:29:42.540Z,8.646
2024-02-10T12:30:42.546Z,8.636
2024-02-10T12:31:42.696Z,8.633
2024-02-10T12:32:42.604Z,8.633
2024-02-10T12:33:42.604Z,8.633
2024-02-10T12:34:42.619Z,8.633
2024-02-10T12:35:42.589Z,8.651
2024-02-10T12:36:42.628Z,8.649
2024-02-10T12:37:42.643Z,8.664
2024-02-10T12:38:42.617Z,8.657
2024-02-10T12:39:42.618Z,8.664
2024-02-10T12:40:42.639Z,8.650
2024-02-10T12:41:42.628Z,8.642
2024-02-10T12:42:42.664Z,8.657
2024-02-10T12:43:42.756Z,8.650
2024-02-10T12:44:42.762Z,8.650
2024-02-10T12:45:42.662Z,8.676
2024-02-10T12:46:42.694Z,8.665
2024-02-10T12:47:42.722Z,8.658
2024-02-10T12:48:42.704Z,8.658
2024-02-10T12:49:42.722Z,8.684
2024-02-10T12:50:42.706Z,8.701
2024-02-10T12:51:42.700Z,8.698
2024-02-10T12:52:42.740Z,8.700